sensor_id;sensor_type;location;lat;lon;timestamp;temperature;humidity
11304;DHT22;5707;49.588;12.148;2023-07-20T00:02:17;16.10;99.90
11304;DHT22;5707;49.588;12.148;2023-07-20T00:04:43;16.20;99.90
11304;DHT22;5707;49.588;12.148;2023-07-20T00:07:08;16.20;99.90
11304;DHT22;5707;49.588;12.148;2023-07-20T00:09:34;16.30;99.90
11304;DHT22;5707;49.588;12.148;2023-07-20T00:11:59;16.30;99.90
11304;DHT22;5707;49.588;12.148;2023-07-20T00:14:25;16.30;99.90
11304;DHT22;5707;49.588;12.148;2023-07-20T00:16:51;16.30;99.90
11304;DHT22;5707;49.588;12.148;2023-07-20T00:19:24;16.30;99.90
11304;DHT22;5707;49.588;12.148;2023-07-20T00:21:50;16.30;99.90
11304;DHT22;5707;49.588;12.148;2023-07-20T00:24:15;16.20;99.90
11304;DHT22;5707;49.588;12.148;2023-07-20T00:26:41;16.20;99.90
11304;DHT22;5707;49.588;12.148;2023-07-20T00:29:06;16.10;99.90
11304;DHT22;5707;49.588;12.148;2023-07-20T00:31:32;16.10;99.90
11304;DHT22;5707;49.588;12.148;2023-07-20T00:33:57;16.10;99.90
11304;DHT22;5707;49.588;12.148;2023-07-20T00:36:23;16.10;99.90
11304;DHT22;5707;49.588;12.148;2023-07-20T00:38:49;16.10;99.90
11304;DHT22;5707;49.588;12.148;2023-07-20T00:41:14;16.20;99.90
11304;DHT22;5707;49.588;12.148;2023-07-20T00:43:40;16.20;99.90
11304;DHT22;5707;49.588;12.148;2023-07-20T00:46:05;16.20;99.90
11304;DHT22;5707;49.588;12.148;2023-07-20T00:48:32;16.20;99.90
11304;DHT22;5707;49.588;12.148;2023-07-20T00:51:01;16.30;99.90
11304;DHT22;5707;49.588;12.148;2023-07-20T00:53:28;16.20;99.90
11304;DHT22;5707;49.588;12.148;2023-07-20T00:55:54;16.20;99.90
11304;DHT22;5707;49.588;12.148;2023-07-20T00:58:20;16.20;99.90
11304;DHT22;5707;49.588;12.148;2023-07-20T01:00:45;16.20;99.90
11304;DHT22;5707;49.588;12.148;2023-07-20T01:03:12;16.20;99.90
11304;DHT22;5707;49.588;12.148;2023-07-20T01:05:54;16.20;99.90
11304;DHT22;5707;49.588;12.148;2023-07-20T01:08:33;16.30;99.90
11304;DHT22;5707;49.588;12.148;2023-07-20T01:11:12;16.30;99.90
11304;DHT22;5707;49.588;12.148;2023-07-20T01:13:41;16.30;99.90
11304;DHT22;5707;49.588;12.148;2023-07-20T01:16:08;16.30;99.90
11304;DHT22;5707;49.588;12.148;2023-07-20T01:18:33;16.30;99.90
11304;DHT22;5707;49.588;12.148;2023-07-20T01:21:03;16.30;99.90
11304;DHT22;5707;49.588;12.148;2023-07-20T01:23:38;16.30;99.90
11304;DHT22;5707;49.588;12.148;2023-07-20T01:26:38;16.20;99.90
11304;DHT22;5707;49.588;12.148;2023-07-20T01:31:58;15.70;99.90
11304;DHT22;5707;49.588;12.148;2023-07-20T01:34:24;15.60;99.90
11304;DHT22;5707;49.588;12.148;2023-07-20T01:36:52;15.50;99.90
11304;DHT22;5707;49.588;12.148;2023-07-20T01:39:21;15.30;99.90
11304;DHT22;5707;49.588;12.148;2023-07-20T01:41:47;15.30;99.90
11304;DHT22;5707;49.588;12.148;2023-07-20T01:44:13;15.30;99.90
11304;DHT22;5707;49.588;12.148;2023-07-20T01:46:38;15.30;99.90
11304;DHT22;5707;49.588;12.148;2023-07-20T01:49:04;15.30;99.90
11304;DHT22;5707;49.588;12.148;2023-07-20T01:51:29;15.30;99.90
11304;DHT22;5707;49.588;12.148;2023-07-20T01:53:55;15.30;99.90
11304;DHT22;5707;49.588;12.148;2023-07-20T01:56:20;15.40;99.90
11304;DHT22;5707;49.588;12.148;2023-07-20T01:58:46;15.40;99.90
11304;DHT22;5707;49.588;12.148;2023-07-20T02:01:12;15.30;99.90
11304;DHT22;5707;49.588;12.148;2023-07-20T02:03:37;15.20;99.90
11304;DHT22;5707;49.588;12.148;2023-07-20T02:06:03;15.20;99.90
11304;DHT22;5707;49.588;12.148;2023-07-20T02:08:28;15.20;99.90
11304;DHT22;5707;49.588;12.148;2023-07-20T02:10:54;15.30;99.90
11304;DHT22;5707;49.588;12.148;2023-07-20T02:13:19;15.30;99.90
11304;DHT22;5707;49.588;12.148;2023-07-20T02:15:45;15.40;99.90
11304;DHT22;5707;49.588;12.148;2023-07-20T02:18:12;15.50;99.90
11304;DHT22;5707;49.588;12.148;2023-07-20T02:20:38;15.60;99.90
11304;DHT22;5707;49.588;12.148;2023-07-20T02:23:05;15.70;99.90
11304;DHT22;5707;49.588;12.148;2023-07-20T02:25:31;15.80;99.90
11304;DHT22;5707;49.588;12.148;2023-07-20T02:27:57;15.80;99.90
11304;DHT22;5707;49.588;12.148;2023-07-20T02:30:23;15.70;99.90
11304;DHT22;5707;49.588;12.148;2023-07-20T02:32:49;15.60;99.90
11304;DHT22;5707;49.588;12.148;2023-07-20T02:35:15;15.50;99.90
11304;DHT22;5707;49.588;12.148;2023-07-20T02:37:41;15.40;99.90
11304;DHT22;5707;49.588;12.148;2023-07-20T02:40:07;15.40;99.90
11304;DHT22;5707;49.588;12.148;2023-07-20T02:42:33;15.40;99.90
11304;DHT22;5707;49.588;12.148;2023-07-20T02:44:58;15.40;99.90
11304;DHT22;5707;49.588;12.148;2023-07-20T02:47:24;15.40;99.90
11304;DHT22;5707;49.588;12.148;2023-07-20T02:49:50;15.40;99.90
11304;DHT22;5707;49.588;12.148;2023-07-20T02:52:15;15.40;99.90
11304;DHT22;5707;49.588;12.148;2023-07-20T02:54:41;15.30;99.90
11304;DHT22;5707;49.588;12.148;2023-07-20T02:57:06;15.30;99.90
11304;DHT22;5707;49.588;12.148;2023-07-20T02:59:32;15.30;99.90
11304;DHT22;5707;49.588;12.148;2023-07-20T03:01:57;15.40;99.90
11304;DHT22;5707;49.588;12.148;2023-07-20T03:04:26;15.40;99.90
11304;DHT22;5707;49.588;12.148;2023-07-20T03:06:52;15.40;99.90
11304;DHT22;5707;49.588;12.148;2023-07-20T03:09:17;15.40;99.90
11304;DHT22;5707;49.588;12.148;2023-07-20T03:11:43;15.40;99.90
11304;DHT22;5707;49.588;12.148;2023-07-20T03:14:08;15.40;99.90
11304;DHT22;5707;49.588;12.148;2023-07-20T03:16:36;15.40;99.90
11304;DHT22;5707;49.588;12.148;2023-07-20T03:19:02;15.40;99.90
11304;DHT22;5707;49.588;12.148;2023-07-20T03:21:27;15.50;99.90
11304;DHT22;5707;49.588;12.148;2023-07-20T03:23:53;15.50;99.90
11304;DHT22;5707;49.588;12.148;2023-07-20T03:26:19;15.50;99.90
11304;DHT22;5707;49.588;12.148;2023-07-20T03:28:45;15.50;99.90
11304;DHT22;5707;49.588;12.148;2023-07-20T03:31:10;15.50;99.90
11304;DHT22;5707;49.588;12.148;2023-07-20T03:33:36;15.50;99.90
11304;DHT22;5707;49.588;12.148;2023-07-20T03:36:01;15.40;99.90
11304;DHT22;5707;49.588;12.148;2023-07-20T03:38:27;15.30;99.90
11304;DHT22;5707;49.588;12.148;2023-07-20T03:40:54;15.20;99.90
11304;DHT22;5707;49.588;12.148;2023-07-20T03:43:21;15.20;99.90
11304;DHT22;5707;49.588;12.148;2023-07-20T03:45:47;15.10;99.90
11304;DHT22;5707;49.588;12.148;2023-07-20T03:48:22;15.10;99.90
11304;DHT22;5707;49.588;12.148;2023-07-20T03:50:49;15.10;99.90
11304;DHT22;5707;49.588;12.148;2023-07-20T03:53:16;15.10;99.90
11304;DHT22;5707;49.588;12.148;2023-07-20T03:55:44;15.10;99.90
11304;DHT22;5707;49.588;12.148;2023-07-20T03:58:12;15.10;99.90
11304;DHT22;5707;49.588;12.148;2023-07-20T04:00:37;15.10;99.90
11304;DHT22;5707;49.588;12.148;2023-07-20T04:03:03;15.10;99.90
11304;DHT22;5707;49.588;12.148;2023-07-20T04:05:28;15.10;99.90
11304;DHT22;5707;49.588;12.148;2023-07-20T04:07:54;15.10;99.90
11304;DHT22;5707;49.588;12.148;2023-07-20T04:10:19;15.20;99.90
11304;DHT22;5707;49.588;12.148;2023-07-20T04:12:45;15.20;99.90
11304;DHT22;5707;49.588;12.148;2023-07-20T04:15:12;15.30;99.90
11304;DHT22;5707;49.588;12.148;2023-07-20T04:17:38;15.40;99.90
11304;DHT22;5707;49.588;12.148;2023-07-20T04:20:04;15.50;99.90
11304;DHT22;5707;49.588;12.148;2023-07-20T04:22:31;15.60;99.90
11304;DHT22;5707;49.588;12.148;2023-07-20T04:24:57;15.70;99.90
11304;DHT22;5707;49.588;12.148;2023-07-20T04:27:22;15.80;99.90
11304;DHT22;5707;49.588;12.148;2023-07-20T04:29:48;15.80;99.90
11304;DHT22;5707;49.588;12.148;2023-07-20T04:32:13;15.90;99.90
11304;DHT22;5707;49.588;12.148;2023-07-20T04:34:39;16.00;99.90
11304;DHT22;5707;49.588;12.148;2023-07-20T04:37:05;16.20;99.90
11304;DHT22;5707;49.588;12.148;2023-07-20T04:39:30;16.30;99.90
11304;DHT22;5707;49.588;12.148;2023-07-20T04:41:56;16.40;99.90
11304;DHT22;5707;49.588;12.148;2023-07-20T04:44:22;16.40;99.90
11304;DHT22;5707;49.588;12.148;2023-07-20T04:46:47;16.40;99.90
11304;DHT22;5707;49.588;12.148;2023-07-20T04:49:13;16.50;99.90
11304;DHT22;5707;49.588;12.148;2023-07-20T04:51:39;16.60;99.90
11304;DHT22;5707;49.588;12.148;2023-07-20T04:54:04;16.70;99.90
11304;DHT22;5707;49.588;12.148;2023-07-20T04:56:30;17.00;99.90
11304;DHT22;5707;49.588;12.148;2023-07-20T04:58:56;17.30;99.90
11304;DHT22;5707;49.588;12.148;2023-07-20T05:01:23;17.70;99.90
11304;DHT22;5707;49.588;12.148;2023-07-20T05:03:48;18.00;99.90
11304;DHT22;5707;49.588;12.148;2023-07-20T05:06:14;18.20;99.90
11304;DHT22;5707;49.588;12.148;2023-07-20T05:08:40;18.70;99.90
11304;DHT22;5707;49.588;12.148;2023-07-20T05:11:06;19.40;99.90
11304;DHT22;5707;49.588;12.148;2023-07-20T05:13:32;19.90;99.90
11304;DHT22;5707;49.588;12.148;2023-07-20T05:15:58;19.80;99.90
11304;DHT22;5707;49.588;12.148;2023-07-20T05:18:24;19.60;99.90
11304;DHT22;5707;49.588;12.148;2023-07-20T05:20:50;19.30;99.90
11304;DHT22;5707;49.588;12.148;2023-07-20T05:23:17;19.20;99.90
11304;DHT22;5707;49.588;12.148;2023-07-20T05:25:43;19.80;99.90
11304;DHT22;5707;49.588;12.148;2023-07-20T05:28:09;20.80;99.90
11304;DHT22;5707;49.588;12.148;2023-07-20T05:30:35;21.00;99.90
11304;DHT22;5707;49.588;12.148;2023-07-20T05:33:00;20.80;99.90
11304;DHT22;5707;49.588;12.148;2023-07-20T05:35:26;21.10;99.90
11304;DHT22;5707;49.588;12.148;2023-07-20T05:37:51;21.00;99.90
11304;DHT22;5707;49.588;12.148;2023-07-20T05:40:17;20.60;99.90
11304;DHT22;5707;49.588;12.148;2023-07-20T05:42:47;20.20;99.90
11304;DHT22;5707;49.588;12.148;2023-07-20T05:45:14;20.20;99.90
11304;DHT22;5707;49.588;12.148;2023-07-20T05:47:41;20.20;99.90
11304;DHT22;5707;49.588;12.148;2023-07-20T05:50:07;20.30;99.90
11304;DHT22;5707;49.588;12.148;2023-07-20T05:52:32;20.20;99.90
11304;DHT22;5707;49.588;12.148;2023-07-20T05:54:58;20.20;99.90
11304;DHT22;5707;49.588;12.148;2023-07-20T05:57:24;20.20;99.90
11304;DHT22;5707;49.588;12.148;2023-07-20T05:59:49;20.40;99.90
11304;DHT22;5707;49.588;12.148;2023-07-20T06:02:16;20.60;99.90
11304;DHT22;5707;49.588;12.148;2023-07-20T06:04:42;20.40;99.90
11304;DHT22;5707;49.588;12.148;2023-07-20T06:07:07;20.20;99.90
11304;DHT22;5707;49.588;12.148;2023-07-20T06:09:33;20.30;99.90
11304;DHT22;5707;49.588;12.148;2023-07-20T06:11:59;20.50;99.90
11304;DHT22;5707;49.588;12.148;2023-07-20T06:14:25;20.80;99.90
11304;DHT22;5707;49.588;12.148;2023-07-20T06:16:50;20.80;99.90
11304;DHT22;5707;49.588;12.148;2023-07-20T06:19:16;20.90;99.90
11304;DHT22;5707;49.588;12.148;2023-07-20T06:21:41;21.00;99.90
11304;DHT22;5707;49.588;12.148;2023-07-20T06:24:07;21.00;99.90
11304;DHT22;5707;49.588;12.148;2023-07-20T06:26:33;21.00;99.90
11304;DHT22;5707;49.588;12.148;2023-07-20T06:29:07;20.90;99.90
11304;DHT22;5707;49.588;12.148;2023-07-20T06:31:33;20.90;99.90
11304;DHT22;5707;49.588;12.148;2023-07-20T06:33:59;20.90;99.90
11304;DHT22;5707;49.588;12.148;2023-07-20T06:36:25;20.70;99.90
11304;DHT22;5707;49.588;12.148;2023-07-20T06:38:51;20.80;99.90
11304;DHT22;5707;49.588;12.148;2023-07-20T06:41:17;20.90;99.90
11304;DHT22;5707;49.588;12.148;2023-07-20T06:43:43;20.80;99.90
11304;DHT22;5707;49.588;12.148;2023-07-20T06:46:08;21.00;99.90
11304;DHT22;5707;49.588;12.148;2023-07-20T06:48:34;21.10;99.90
11304;DHT22;5707;49.588;12.148;2023-07-20T06:50:59;21.00;99.90
11304;DHT22;5707;49.588;12.148;2023-07-20T06:53:25;21.10;99.90
11304;DHT22;5707;49.588;12.148;2023-07-20T06:55:52;21.10;99.90
11304;DHT22;5707;49.588;12.148;2023-07-20T06:58:17;21.20;99.90
11304;DHT22;5707;49.588;12.148;2023-07-20T07:00:44;21.30;99.30
11304;DHT22;5707;49.588;12.148;2023-07-20T07:03:10;21.30;99.30
11304;DHT22;5707;49.588;12.148;2023-07-20T07:05:36;21.60;98.20
11304;DHT22;5707;49.588;12.148;2023-07-20T07:08:03;21.90;97.60
11304;DHT22;5707;49.588;12.148;2023-07-20T07:10:29;21.70;97.50
11304;DHT22;5707;49.588;12.148;2023-07-20T07:12:55;21.30;99.90
11304;DHT22;5707;49.588;12.148;2023-07-20T07:15:20;21.20;99.90
11304;DHT22;5707;49.588;12.148;2023-07-20T07:17:46;21.40;96.70
11304;DHT22;5707;49.588;12.148;2023-07-20T07:20:11;21.50;95.00
11304;DHT22;5707;49.588;12.148;2023-07-20T07:22:37;21.50;93.40
11304;DHT22;5707;49.588;12.148;2023-07-20T07:25:03;21.80;91.50
11304;DHT22;5707;49.588;12.148;2023-07-20T07:27:29;21.60;92.00
11304;DHT22;5707;49.588;12.148;2023-07-20T07:29:54;21.70;93.20
11304;DHT22;5707;49.588;12.148;2023-07-20T07:32:20;22.10;90.50
11304;DHT22;5707;49.588;12.148;2023-07-20T07:34:46;22.40;84.40
11304;DHT22;5707;49.588;12.148;2023-07-20T07:37:13;22.80;83.40
11304;DHT22;5707;49.588;12.148;2023-07-20T07:39:39;23.10;78.30
11304;DHT22;5707;49.588;12.148;2023-07-20T07:42:05;23.00;75.90
11304;DHT22;5707;49.588;12.148;2023-07-20T07:44:31;22.90;69.90
11304;DHT22;5707;49.588;12.148;2023-07-20T07:46:57;22.80;67.70
11304;DHT22;5707;49.588;12.148;2023-07-20T07:49:23;22.80;65.80
11304;DHT22;5707;49.588;12.148;2023-07-20T07:51:48;23.00;63.50
11304;DHT22;5707;49.588;12.148;2023-07-20T07:54:14;23.10;58.90
11304;DHT22;5707;49.588;12.148;2023-07-20T07:56:39;23.20;55.60
11304;DHT22;5707;49.588;12.148;2023-07-20T07:59:06;23.30;55.60
11304;DHT22;5707;49.588;12.148;2023-07-20T08:01:32;23.60;52.50
11304;DHT22;5707;49.588;12.148;2023-07-20T08:03:57;23.60;51.00
11304;DHT22;5707;49.588;12.148;2023-07-20T08:06:23;23.70;50.20
11304;DHT22;5707;49.588;12.148;2023-07-20T08:08:49;24.10;45.00
11304;DHT22;5707;49.588;12.148;2023-07-20T08:11:15;24.50;41.80
11304;DHT22;5707;49.588;12.148;2023-07-20T08:13:41;25.00;36.60
11304;DHT22;5707;49.588;12.148;2023-07-20T08:16:07;24.90;33.70
11304;DHT22;5707;49.588;12.148;2023-07-20T08:18:32;24.80;34.00
11304;DHT22;5707;49.588;12.148;2023-07-20T08:20:58;24.50;35.20
11304;DHT22;5707;49.588;12.148;2023-07-20T08:23:24;24.10;37.90
11304;DHT22;5707;49.588;12.148;2023-07-20T08:25:49;23.50;38.80
11304;DHT22;5707;49.588;12.148;2023-07-20T08:28:16;23.40;39.30
11304;DHT22;5707;49.588;12.148;2023-07-20T08:30:44;23.50;38.30
11304;DHT22;5707;49.588;12.148;2023-07-20T08:33:12;23.50;38.50
11304;DHT22;5707;49.588;12.148;2023-07-20T08:35:38;23.70;38.00
11304;DHT22;5707;49.588;12.148;2023-07-20T08:38:03;23.70;33.90
11304;DHT22;5707;49.588;12.148;2023-07-20T08:40:31;24.00;35.30
11304;DHT22;5707;49.588;12.148;2023-07-20T08:42:58;24.20;34.60
11304;DHT22;5707;49.588;12.148;2023-07-20T08:45:27;24.40;31.00
11304;DHT22;5707;49.588;12.148;2023-07-20T08:47:58;24.60;31.00
11304;DHT22;5707;49.588;12.148;2023-07-20T08:50:26;25.20;30.50
11304;DHT22;5707;49.588;12.148;2023-07-20T08:52:52;25.50;28.30
11304;DHT22;5707;49.588;12.148;2023-07-20T08:55:23;25.30;27.80
11304;DHT22;5707;49.588;12.148;2023-07-20T08:57:59;24.60;27.90
11304;DHT22;5707;49.588;12.148;2023-07-20T09:00:26;23.80;27.60
11304;DHT22;5707;49.588;12.148;2023-07-20T09:02:55;23.20;29.40
11304;DHT22;5707;49.588;12.148;2023-07-20T09:05:23;22.70;30.00
11304;DHT22;5707;49.588;12.148;2023-07-20T09:07:52;22.40;33.00
11304;DHT22;5707;49.588;12.148;2023-07-20T09:10:23;22.60;32.60
11304;DHT22;5707;49.588;12.148;2023-07-20T09:12:49;23.00;33.70
11304;DHT22;5707;49.588;12.148;2023-07-20T09:15:15;23.30;33.40
11304;DHT22;5707;49.588;12.148;2023-07-20T09:17:49;23.60;28.10
11304;DHT22;5707;49.588;12.148;2023-07-20T09:20:16;23.60;26.50
11304;DHT22;5707;49.588;12.148;2023-07-20T09:22:43;24.00;26.20
11304;DHT22;5707;49.588;12.148;2023-07-20T09:25:13;24.30;24.90
11304;DHT22;5707;49.588;12.148;2023-07-20T09:27:43;24.60;26.00
11304;DHT22;5707;49.588;12.148;2023-07-20T09:30:10;24.80;24.90
11304;DHT22;5707;49.588;12.148;2023-07-20T09:32:45;24.80;24.80
11304;DHT22;5707;49.588;12.148;2023-07-20T09:35:19;24.70;23.90
11304;DHT22;5707;49.588;12.148;2023-07-20T09:37:59;24.30;25.40
11304;DHT22;5707;49.588;12.148;2023-07-20T09:40:26;24.30;25.60
11304;DHT22;5707;49.588;12.148;2023-07-20T09:42:55;24.80;25.20
11304;DHT22;5707;49.588;12.148;2023-07-20T09:45:29;25.50;24.70
11304;DHT22;5707;49.588;12.148;2023-07-20T09:48:03;25.60;25.00
11304;DHT22;5707;49.588;12.148;2023-07-20T09:50:30;25.50;20.90
11304;DHT22;5707;49.588;12.148;2023-07-20T09:52:56;24.90;23.00
11304;DHT22;5707;49.588;12.148;2023-07-20T09:55:22;24.20;22.50
11304;DHT22;5707;49.588;12.148;2023-07-20T09:57:49;23.80;24.60
11304;DHT22;5707;49.588;12.148;2023-07-20T10:00:16;23.90;25.00
11304;DHT22;5707;49.588;12.148;2023-07-20T10:02:44;24.60;26.40
11304;DHT22;5707;49.588;12.148;2023-07-20T10:05:14;25.50;23.20
11304;DHT22;5707;49.588;12.148;2023-07-20T10:07:47;26.20;20.70
11304;DHT22;5707;49.588;12.148;2023-07-20T10:10:17;26.50;18.60
11304;DHT22;5707;49.588;12.148;2023-07-20T10:12:46;26.10;20.90
11304;DHT22;5707;49.588;12.148;2023-07-20T10:17:57;25.40;19.70
11304;DHT22;5707;49.588;12.148;2023-07-20T10:20:25;25.20;19.90
11304;DHT22;5707;49.588;12.148;2023-07-20T10:22:53;24.90;20.10
11304;DHT22;5707;49.588;12.148;2023-07-20T10:25:22;24.60;21.70
11304;DHT22;5707;49.588;12.148;2023-07-20T10:27:48;24.60;21.40
11304;DHT22;5707;49.588;12.148;2023-07-20T10:30:14;24.70;21.60
11304;DHT22;5707;49.588;12.148;2023-07-20T10:32:40;24.70;20.70
11304;DHT22;5707;49.588;12.148;2023-07-20T10:35:13;24.60;19.00
11304;DHT22;5707;49.588;12.148;2023-07-20T10:40:33;24.30;22.70
11304;DHT22;5707;49.588;12.148;2023-07-20T10:43:03;24.30;22.30
11304;DHT22;5707;49.588;12.148;2023-07-20T10:45:48;24.30;21.50
11304;DHT22;5707;49.588;12.148;2023-07-20T10:48:19;24.40;23.00
11304;DHT22;5707;49.588;12.148;2023-07-20T10:50:48;24.60;22.50
11304;DHT22;5707;49.588;12.148;2023-07-20T10:53:31;24.70;22.50
11304;DHT22;5707;49.588;12.148;2023-07-20T10:56:26;24.80;21.70
11304;DHT22;5707;49.588;12.148;2023-07-20T10:58:59;24.60;22.40
11304;DHT22;5707;49.588;12.148;2023-07-20T11:01:30;24.50;22.80
11304;DHT22;5707;49.588;12.148;2023-07-20T11:03:59;24.60;22.20
11304;DHT22;5707;49.588;12.148;2023-07-20T11:09:07;24.90;22.40
11304;DHT22;5707;49.588;12.148;2023-07-20T11:11:37;25.30;21.50
11304;DHT22;5707;49.588;12.148;2023-07-20T11:14:05;25.40;19.80
11304;DHT22;5707;49.588;12.148;2023-07-20T11:16:34;25.60;20.70
11304;DHT22;5707;49.588;12.148;2023-07-20T11:19:00;25.90;19.10
11304;DHT22;5707;49.588;12.148;2023-07-20T11:21:26;26.10;19.00
11304;DHT22;5707;49.588;12.148;2023-07-20T11:23:53;26.30;17.40
11304;DHT22;5707;49.588;12.148;2023-07-20T11:26:19;26.30;17.00
11304;DHT22;5707;49.588;12.148;2023-07-20T11:28:49;26.50;17.50
11304;DHT22;5707;49.588;12.148;2023-07-20T11:31:15;26.60;15.00
11304;DHT22;5707;49.588;12.148;2023-07-20T11:33:43;26.30;15.10
11304;DHT22;5707;49.588;12.148;2023-07-20T11:36:09;26.50;16.00
11304;DHT22;5707;49.588;12.148;2023-07-20T11:38:34;26.80;17.30
11304;DHT22;5707;49.588;12.148;2023-07-20T11:41:02;26.90;15.30
11304;DHT22;5707;49.588;12.148;2023-07-20T11:43:29;26.60;15.40
11304;DHT22;5707;49.588;12.148;2023-07-20T11:45:55;26.40;15.80
11304;DHT22;5707;49.588;12.148;2023-07-20T11:48:21;26.30;17.00
11304;DHT22;5707;49.588;12.148;2023-07-20T11:50:47;26.00;16.00
11304;DHT22;5707;49.588;12.148;2023-07-20T11:53:13;25.70;15.60
11304;DHT22;5707;49.588;12.148;2023-07-20T11:55:40;25.50;16.70
11304;DHT22;5707;49.588;12.148;2023-07-20T11:58:07;25.40;16.70
11304;DHT22;5707;49.588;12.148;2023-07-20T12:00:34;25.50;15.50
11304;DHT22;5707;49.588;12.148;2023-07-20T12:03:01;25.70;16.20
11304;DHT22;5707;49.588;12.148;2023-07-20T12:05:26;25.80;12.60
11304;DHT22;5707;49.588;12.148;2023-07-20T12:07:52;25.80;12.60
11304;DHT22;5707;49.588;12.148;2023-07-20T12:10:27;25.80;13.80
11304;DHT22;5707;49.588;12.148;2023-07-20T12:12:53;26.00;8.70
11304;DHT22;5707;49.588;12.148;2023-07-20T12:15:25;26.10;9.90
11304;DHT22;5707;49.588;12.148;2023-07-20T12:17:57;26.50;8.30
11304;DHT22;5707;49.588;12.148;2023-07-20T12:20:32;27.10;9.00
11304;DHT22;5707;49.588;12.148;2023-07-20T12:23:03;27.80;8.60
11304;DHT22;5707;49.588;12.148;2023-07-20T12:25:46;28.00;4.90
11304;DHT22;5707;49.588;12.148;2023-07-20T12:28:13;28.10;4.90
11304;DHT22;5707;49.588;12.148;2023-07-20T12:30:41;28.30;4.70
11304;DHT22;5707;49.588;12.148;2023-07-20T12:33:07;28.70;5.60
11304;DHT22;5707;49.588;12.148;2023-07-20T12:35:33;28.90;3.90
11304;DHT22;5707;49.588;12.148;2023-07-20T12:37:58;29.10;3.40
11304;DHT22;5707;49.588;12.148;2023-07-20T12:40:25;28.80;2.30
11304;DHT22;5707;49.588;12.148;2023-07-20T12:42:50;28.50;1.80
11304;DHT22;5707;49.588;12.148;2023-07-20T12:45:16;28.20;3.00
11304;DHT22;5707;49.588;12.148;2023-07-20T12:47:42;28.30;2.90
11304;DHT22;5707;49.588;12.148;2023-07-20T12:50:09;28.50;1.10
11304;DHT22;5707;49.588;12.148;2023-07-20T12:52:37;28.60;2.10
11304;DHT22;5707;49.588;12.148;2023-07-20T12:55:04;28.50;2.40
11304;DHT22;5707;49.588;12.148;2023-07-20T12:57:30;28.20;3.40
11304;DHT22;5707;49.588;12.148;2023-07-20T12:59:55;28.20;2.50
11304;DHT22;5707;49.588;12.148;2023-07-20T13:02:21;28.20;3.70
11304;DHT22;5707;49.588;12.148;2023-07-20T13:04:46;27.80;4.10
11304;DHT22;5707;49.588;12.148;2023-07-20T13:07:13;27.30;5.40
11304;DHT22;5707;49.588;12.148;2023-07-20T13:09:39;26.80;6.60
11304;DHT22;5707;49.588;12.148;2023-07-20T13:12:05;26.60;7.60
11304;DHT22;5707;49.588;12.148;2023-07-20T13:14:30;26.60;7.90
11304;DHT22;5707;49.588;12.148;2023-07-20T13:16:56;26.80;8.70
11304;DHT22;5707;49.588;12.148;2023-07-20T13:19:22;26.90;6.80
11304;DHT22;5707;49.588;12.148;2023-07-20T13:21:47;26.60;8.40
11304;DHT22;5707;49.588;12.148;2023-07-20T13:24:13;26.30;8.20
11304;DHT22;5707;49.588;12.148;2023-07-20T13:26:39;26.20;6.70
11304;DHT22;5707;49.588;12.148;2023-07-20T13:29:04;26.40;8.10
11304;DHT22;5707;49.588;12.148;2023-07-20T13:31:30;26.70;6.90
11304;DHT22;5707;49.588;12.148;2023-07-20T13:33:55;26.80;5.90
11304;DHT22;5707;49.588;12.148;2023-07-20T13:36:22;26.60;6.00
11304;DHT22;5707;49.588;12.148;2023-07-20T13:38:48;26.50;6.60
11304;DHT22;5707;49.588;12.148;2023-07-20T13:41:14;26.50;7.40
11304;DHT22;5707;49.588;12.148;2023-07-20T13:43:40;26.70;7.00
11304;DHT22;5707;49.588;12.148;2023-07-20T13:46:06;27.20;5.80
11304;DHT22;5707;49.588;12.148;2023-07-20T13:48:31;27.50;5.70
11304;DHT22;5707;49.588;12.148;2023-07-20T13:50:57;27.80;4.70
11304;DHT22;5707;49.588;12.148;2023-07-20T13:53:22;27.90;5.60
11304;DHT22;5707;49.588;12.148;2023-07-20T13:55:48;28.10;4.70
11304;DHT22;5707;49.588;12.148;2023-07-20T13:58:14;27.60;4.50
11304;DHT22;5707;49.588;12.148;2023-07-20T14:00:40;27.50;6.40
11304;DHT22;5707;49.588;12.148;2023-07-20T14:03:05;27.50;4.30
11304;DHT22;5707;49.588;12.148;2023-07-20T14:05:31;27.50;5.00
11304;DHT22;5707;49.588;12.148;2023-07-20T14:07:57;27.50;4.60
11304;DHT22;5707;49.588;12.148;2023-07-20T14:10:22;27.80;5.10
11304;DHT22;5707;49.588;12.148;2023-07-20T14:12:48;27.90;3.90
11304;DHT22;5707;49.588;12.148;2023-07-20T14:15:13;28.10;4.20
11304;DHT22;5707;49.588;12.148;2023-07-20T14:17:39;28.50;4.90
11304;DHT22;5707;49.588;12.148;2023-07-20T14:20:05;28.50;2.90
11304;DHT22;5707;49.588;12.148;2023-07-20T14:22:31;28.20;4.50
11304;DHT22;5707;49.588;12.148;2023-07-20T14:24:57;27.90;3.00
11304;DHT22;5707;49.588;12.148;2023-07-20T14:27:24;27.30;3.40
11304;DHT22;5707;49.588;12.148;2023-07-20T14:29:49;26.60;4.20
11304;DHT22;5707;49.588;12.148;2023-07-20T14:32:15;26.30;4.70
11304;DHT22;5707;49.588;12.148;2023-07-20T14:34:40;26.30;5.20
11304;DHT22;5707;49.588;12.148;2023-07-20T14:37:06;26.50;5.80
11304;DHT22;5707;49.588;12.148;2023-07-20T14:39:32;26.50;6.60
11304;DHT22;5707;49.588;12.148;2023-07-20T14:41:58;26.30;7.80
11304;DHT22;5707;49.588;12.148;2023-07-20T14:44:23;26.10;9.00
11304;DHT22;5707;49.588;12.148;2023-07-20T14:46:50;26.00;8.50
11304;DHT22;5707;49.588;12.148;2023-07-20T14:49:16;25.60;9.10
11304;DHT22;5707;49.588;12.148;2023-07-20T14:51:41;25.40;10.00
11304;DHT22;5707;49.588;12.148;2023-07-20T14:54:12;25.40;8.70
11304;DHT22;5707;49.588;12.148;2023-07-20T14:56:38;25.20;10.10
11304;DHT22;5707;49.588;12.148;2023-07-20T14:59:04;25.00;10.40
11304;DHT22;5707;49.588;12.148;2023-07-20T15:01:31;24.80;9.40
11304;DHT22;5707;49.588;12.148;2023-07-20T15:03:57;24.90;10.20
11304;DHT22;5707;49.588;12.148;2023-07-20T15:06:23;25.30;10.80
11304;DHT22;5707;49.588;12.148;2023-07-20T15:08:48;25.70;10.30
11304;DHT22;5707;49.588;12.148;2023-07-20T15:11:14;26.00;8.60
11304;DHT22;5707;49.588;12.148;2023-07-20T15:13:39;26.10;8.60
11304;DHT22;5707;49.588;12.148;2023-07-20T15:16:08;26.30;8.00
11304;DHT22;5707;49.588;12.148;2023-07-20T15:18:35;26.50;9.30
11304;DHT22;5707;49.588;12.148;2023-07-20T15:21:00;26.60;8.20
11304;DHT22;5707;49.588;12.148;2023-07-20T15:23:26;27.00;7.70
11304;DHT22;5707;49.588;12.148;2023-07-20T15:25:51;27.50;7.60
11304;DHT22;5707;49.588;12.148;2023-07-20T15:28:17;27.90;8.20
11304;DHT22;5707;49.588;12.148;2023-07-20T15:30:43;28.10;7.20
11304;DHT22;5707;49.588;12.148;2023-07-20T15:33:08;27.80;5.60
11304;DHT22;5707;49.588;12.148;2023-07-20T15:35:34;27.40;7.70
11304;DHT22;5707;49.588;12.148;2023-07-20T15:37:59;27.20;5.80
11304;DHT22;5707;49.588;12.148;2023-07-20T15:40:25;27.70;5.50
11304;DHT22;5707;49.588;12.148;2023-07-20T15:42:50;28.80;3.60
11304;DHT22;5707;49.588;12.148;2023-07-20T15:45:16;29.50;3.50